createdAt,value
2022-11-08T00:00:59.067Z,100567.98
2022-11-08T00:02:06.593Z,100572.33
2022-11-08T00:03:12.385Z,100574.13
2022-11-08T00:04:18.269Z,100574.13
2022-11-08T00:05:22.653Z,100552.97
2022-11-08T00:06:27.464Z,100549.47
2022-11-08T00:07:31.857Z,100549.37
2022-11-08T00:08:36.697Z,100551.39
2022-11-08T00:09:41.702Z,100545.20
2022-11-08T00:10:46.039Z,100549.02
2022-11-08T00:11:50.938Z,100549.88
2022-11-08T00:12:57.555Z,100544.64
2022-11-08T00:14:03.363Z,100534.78
2022-11-08T00:15:09.073Z,100540.09
2022-11-08T00:16:14.983Z,100538.40
2022-11-08T00:17:20.759Z,100529.88
2022-11-08T00:18:25.754Z,100521.91
2022-11-08T00:19:30.374Z,100521.91
2022-11-08T00:20:35.040Z,100529.88
2022-11-08T00:21:39.996Z,100527.30
2022-11-08T00:22:44.348Z,100525.61
2022-11-08T00:23:49.270Z,100528.27
2022-11-08T00:24:56.332Z,100528.27
2022-11-08T00:26:01.522Z,100528.18
2022-11-08T00:27:08.945Z,100524.77
2022-11-08T00:28:14.017Z,100524.64
2022-11-08T00:29:24.780Z,100516.68
2022-11-08T00:30:29.727Z,100519.25
2022-11-08T00:31:34.406Z,100505.01
2022-11-08T00:32:39.030Z,100507.78
2022-11-08T00:33:47.009Z,100507.78
2022-11-08T00:34:52.083Z,100547.50
2022-11-08T00:36:00.082Z,100561.63
2022-11-08T00:37:07.886Z,100570.27
2022-11-08T00:38:12.350Z,100572.16
2022-11-08T00:39:17.154Z,100572.16
2022-11-08T00:40:23.450Z,100572.16
2022-11-08T00:41:29.098Z,100582.59
2022-11-08T00:42:34.919Z,100578.23
2022-11-08T00:43:42.523Z,100579.00
2022-11-08T00:44:47.067Z,100581.66
2022-11-08T00:45:54.072Z,100582.39
2022-11-08T00:46:59.856Z,100582.39
2022-11-08T00:48:06.891Z,100583.55
2022-11-08T00:49:12.421Z,100582.59
2022-11-08T00:50:17.602Z,100584.31
2022-11-08T00:51:23.755Z,100581.66
2022-11-08T00:52:28.983Z,100583.44
2022-11-08T00:53:35.074Z,100570.16
2022-11-08T00:54:39.635Z,100570.16
2022-11-08T00:55:44.804Z,100562.39
2022-11-08T00:56:50.875Z,100562.39
2022-11-08T00:58:00.057Z,100559.84
2022-11-08T00:59:05.176Z,100570.47
2022-11-08T01:00:11.520Z,100565.16
2022-11-08T01:01:21.287Z,100558.13
2022-11-08T01:02:26.229Z,100566.20
2022-11-08T01:03:31.203Z,100559.94
2022-11-08T01:04:35.946Z,100551.97
2022-11-08T01:05:40.821Z,100549.42
2022-11-08T01:06:45.865Z,100549.42
2022-11-08T01:07:51.978Z,100556.63
2022-11-08T01:08:57.035Z,100549.59
2022-11-08T01:10:01.884Z,100549.80
2022-11-08T01:11:08.931Z,100556.63
2022-11-08T01:12:14.062Z,100550.36
2022-11-08T01:13:20.306Z,100542.59
2022-11-08T01:14:25.142Z,100544.48
2022-11-08T01:15:30.008Z,100553.41
2022-11-08T01:16:35.769Z,100552.56
2022-11-08T01:17:40.484Z,100552.45
2022-11-08T01:18:47.450Z,100552.45
2022-11-08T01:19:55.634Z,100548.75
2022-11-08T01:21:00.407Z,100548.75
2022-11-08T01:22:05.192Z,100546.58
2022-11-08T01:23:11.004Z,100548.39
2022-11-08T01:24:16.097Z,100539.66
2022-11-08T01:25:22.535Z,100539.66
2022-11-08T01:26:29.946Z,100541.47
2022-11-08T01:27:35.055Z,100543.36
2022-11-08T01:28:41.563Z,100539.13
2022-11-08T01:29:49.375Z,100534.66
2022-11-08T01:30:54.131Z,100529.55
2022-11-08T01:32:01.004Z,100529.72
2022-11-08T01:33:06.225Z,100519.09
2022-11-08T01:34:11.288Z,100522.06
2022-11-08T01:35:24.423Z,100513.26
2022-11-08T01:36:30.108Z,100508.68
2022-11-08T01:37:36.258Z,100501.67
2022-11-08T01:38:41.348Z,100496.38
2022-11-08T01:39:46.404Z,100500.16
2022-11-08T01:40:55.965Z,100499.22
2022-11-08T01:42:00.834Z,100501.12
2022-11-08T01:43:27.499Z,100505.86
2022-11-08T01:44:34.114Z,100504.17
2022-11-08T01:46:02.227Z,100504.93
2022-11-08T01:47:07.867Z,100506.06
2022-11-08T01:48:12.692Z,100516.59
2022-11-08T01:49:36.457Z,100518.56
2022-11-08T01:50:42.316Z,100518.56
2022-11-08T01:51:53.725Z,100511.36
2022-11-08T01:52:58.290Z,100511.36
2022-11-08T01:54:08.504Z,100515.14
2022-11-08T01:55:18.703Z,100518.56
2022-11-08T01:56:23.476Z,100516.11
2022-11-08T01:57:40.391Z,100510.99
2022-11-08T01:58:47.616Z,100525.03
2022-11-08T01:59:55.539Z,100525.03
2022-11-08T02:01:02.381Z,100521.53
2022-11-08T02:02:09.076Z,100521.41
2022-11-08T02:03:16.930Z,100520.65
2022-11-08T02:04:21.367Z,100520.65
2022-11-08T02:05:26.803Z,100520.65
2022-11-08T02:06:34.235Z,100517.34
2022-11-08T02:07:38.659Z,100520.00
2022-11-08T02:08:45.315Z,100521.61
2022-11-08T02:09:49.722Z,100526.07
2022-11-08T02:10:54.883Z,100526.07
2022-11-08T02:11:59.709Z,100529.57
2022-11-08T02:13:07.752Z,100537.73
2022-11-08T02:14:12.400Z,100527.39
2022-11-08T02:15:19.240Z,100525.50
2022-11-08T02:16:24.817Z,100522.73
2022-11-08T02:17:33.097Z,100523.61
2022-11-08T02:18:38.249Z,100515.81
2022-11-08T02:19:53.860Z,100515.81
2022-11-08T02:21:07.447Z,100512.51
2022-11-08T02:22:19.756Z,100510.05
2022-11-08T02:23:33.584Z,100516.32
2022-11-08T02:24:55.390Z,100514.78
2022-11-08T02:25:59.869Z,100515.44
2022-11-08T02:27:05.274Z,100513.75
2022-11-08T02:28:10.344Z,100513.75
2022-11-08T02:29:33.623Z,100521.25
2022-11-08T02:30:41.401Z,100513.29
2022-11-08T02:31:46.475Z,100511.56
2022-11-08T02:32:51.423Z,100514.13
2022-11-08T02:33:56.679Z,100515.37
2022-11-08T02:35:01.143Z,100515.37
2022-11-08T02:36:08.500Z,100509.30
2022-11-08T02:37:19.036Z,100504.27
2022-11-08T02:38:26.078Z,100502.38
2022-11-08T02:39:31.443Z,100508.64
2022-11-08T02:40:48.307Z,100508.64
2022-11-08T02:41:53.405Z,100520.09
2022-11-08T02:43:00.561Z,100520.09
2022-11-08T02:44:07.233Z,100514.60
2022-11-08T02:45:12.319Z,100514.02
2022-11-08T02:46:21.955Z,100513.84
2022-11-08T02:47:27.000Z,100513.84
2022-11-08T02:48:32.357Z,100517.45
2022-11-08T02:49:40.701Z,100519.25
2022-11-08T02:50:48.219Z,100516.48
2022-11-08T02:51:54.961Z,100516.48
2022-11-08T02:52:59.725Z,100523.33
2022-11-08T02:54:04.839Z,100521.59
2022-11-08T02:55:10.151Z,100514.33
2022-11-08T02:56:15.626Z,100512.41
2022-11-08T02:57:21.303Z,100514.33
2022-11-08T02:58:32.003Z,100506.26
2022-11-08T02:59:34.835Z,100506.26
2022-11-08T03:00:40.400Z,100518.59
2022-11-08T03:01:45.516Z,100516.67
2022-11-08T03:02:55.962Z,100499.91
2022-11-08T03:04:01.256Z,100495.64
2022-11-08T03:05:07.537Z,100502.67
2022-11-08T03:06:14.389Z,100506.45
2022-11-08T03:07:24.528Z,100506.45
2022-11-08T03:08:25.808Z,100503.72
2022-11-08T03:09:30.722Z,100505.41
2022-11-08T03:10:36.241Z,100507.10
2022-11-08T03:11:40.721Z,100504.76
2022-11-08T03:12:46.047Z,100505.49
2022-11-08T03:13:50.807Z,100508.91
2022-11-08T03:14:55.926Z,100495.84
2022-11-08T03:16:05.571Z,100495.84
2022-11-08T03:17:10.546Z,100500.11
2022-11-08T03:18:16.199Z,100500.19
2022-11-08T03:19:22.093Z,100507.22
2022-11-08T03:20:32.494Z,100502.11
2022-11-08T03:21:37.428Z,100509.38
2022-11-08T03:22:42.565Z,100509.38
2022-11-08T03:23:50.129Z,100512.52
2022-11-08T03:24:56.051Z,100515.17
2022-11-08T03:26:05.112Z,100509.95
2022-11-08T03:27:11.995Z,100507.10
2022-11-08T03:28:21.613Z,100507.10
2022-11-08T03:29:26.216Z,100507.10
2022-11-08T03:30:32.484Z,100509.87
2022-11-08T03:31:37.660Z,100505.41
2022-11-08T03:32:44.948Z,100502.67
2022-11-08T03:33:50.021Z,100502.67
2022-11-08T03:34:55.236Z,100505.33
2022-11-08T03:35:59.984Z,100512.33
2022-11-08T03:37:07.248Z,100505.02
2022-11-08T03:38:12.108Z,100503.98
2022-11-08T03:39:17.141Z,100507.40
2022-11-08T03:40:23.884Z,100498.48
2022-11-08T03:41:29.091Z,100503.98
2022-11-08T03:42:34.199Z,100499.36
2022-11-08T03:43:39.360Z,100498.59
2022-11-08T03:44:45.397Z,100498.59
2022-11-08T03:45:49.981Z,100498.40
2022-11-08T03:46:54.294Z,100496.78
2022-11-08T03:47:59.858Z,100499.52
2022-11-08T03:49:06.841Z,100494.33
2022-11-08T03:50:18.551Z,100497.83
2022-11-08T03:51:26.989Z,100497.83
2022-11-08T03:52:32.865Z,100491.48
2022-11-08T03:53:39.306Z,100486.94
2022-11-08T03:54:47.953Z,100486.94
2022-11-08T03:55:54.114Z,100490.72
2022-11-08T03:56:59.683Z,100488.83
2022-11-08T03:58:05.597Z,100493.37
2022-11-08T03:59:11.813Z,100494.90
2022-11-08T04:00:23.182Z,100501.90
2022-11-08T04:01:38.692Z,100500.97
2022-11-08T04:02:45.023Z,100499.89
2022-11-08T04:03:53.824Z,100509.86
2022-11-08T04:04:58.480Z,100505.31
2022-11-08T04:06:10.821Z,100508.16
2022-11-08T04:07:16.752Z,100510.81
2022-11-08T04:08:24.476Z,100510.81
2022-11-08T04:09:30.516Z,100509.02
2022-11-08T04:10:40.588Z,100510.81
2022-11-08T04:11:43.175Z,100511.74
2022-11-08T04:12:49.140Z,100508.05
2022-11-08T04:13:53.759Z,100508.05
2022-11-08T04:15:02.034Z,100520.27
2022-11-08T04:16:06.836Z,100513.08
2022-11-08T04:17:14.255Z,100507.01
2022-11-08T04:18:20.681Z,100508.81
2022-11-08T04:19:25.557Z,100508.73
2022-11-08T04:20:30.439Z,100508.73
2022-11-08T04:21:34.624Z,100508.54
2022-11-08T04:22:38.545Z,100508.54
2022-11-08T04:23:42.561Z,100510.23
2022-11-08T04:24:46.514Z,100507.69
2022-11-08T04:25:59.312Z,100507.69
2022-11-08T04:27:05.260Z,100513.00
2022-11-08T04:28:09.560Z,100507.58
2022-11-08T04:29:14.152Z,100507.77
2022-11-08T04:30:18.636Z,100518.95
2022-11-08T04:31:27.973Z,100518.95
2022-11-08T04:32:29.225Z,100512.80
2022-11-08T04:33:36.524Z,100511.84
2022-11-08T04:34:40.022Z,100511.84
2022-11-08T04:35:44.367Z,100513.65
2022-11-08T04:36:48.638Z,100504.53
2022-11-08T04:37:52.890Z,100499.22
2022-11-08T04:38:57.263Z,100501.14
2022-11-08T04:40:01.699Z,100493.07
2022-11-08T04:41:08.566Z,100503.41
2022-11-08T04:42:13.129Z,100499.91
2022-11-08T04:43:17.313Z,100498.37
2022-11-08T04:44:21.481Z,100500.95
2022-11-08T04:45:25.724Z,100504.45
2022-11-08T04:46:31.812Z,100499.22
2022-11-08T04:47:41.037Z,100503.41
2022-11-08T04:48:43.418Z,100499.98
2022-11-08T04:49:51.516Z,100504.37
2022-11-08T04:50:55.530Z,100511.56
2022-11-08T04:52:01.393Z,100511.56
2022-11-08T04:53:05.617Z,100511.56
2022-11-08T04:54:11.720Z,100514.10
2022-11-08T04:55:16.119Z,100512.33
2022-11-08T04:56:21.884Z,100514.22
2022-11-08T04:57:26.295Z,100518.56
2022-11-08T04:58:35.851Z,100509.67
2022-11-08T04:59:40.475Z,100512.33
2022-11-08T05:00:44.953Z,100506.06
2022-11-08T05:01:49.343Z,100506.06
2022-11-08T05:02:54.374Z,100507.02
2022-11-08T05:03:59.082Z,100504.17
2022-11-08T05:05:03.449Z,100504.25
2022-11-08T05:06:12.185Z,100503.20
2022-11-08T05:07:16.565Z,100512.33
2022-11-08T05:08:21.018Z,100513.17
2022-11-08T05:09:28.696Z,100519.33
2022-11-08T05:10:34.409Z,100511.28
2022-11-08T05:11:38.548Z,100507.95
2022-11-08T05:12:42.817Z,100509.56
2022-11-08T05:13:47.994Z,100507.75
2022-11-08T05:14:55.176Z,100502.44
2022-11-08T05:16:08.565Z,100504.17
2022-11-08T05:17:12.864Z,100508.43
2022-11-08T05:18:17.184Z,100513.82
2022-11-08T05:19:21.782Z,100527.09
2022-11-08T05:20:26.145Z,100511.28
2022-11-08T05:21:30.396Z,100506.70
2022-11-08T05:22:34.597Z,100512.02
2022-11-08T05:23:38.916Z,100510.23
2022-11-08T05:24:43.200Z,100510.52
2022-11-08T05:25:47.518Z,100507.95
2022-11-08T05:26:51.882Z,100511.36
2022-11-08T05:27:56.394Z,100513.82
2022-11-08T05:29:01.121Z,100517.33
2022-11-08T05:30:10.393Z,100517.33
2022-11-08T05:31:16.972Z,100524.36
2022-11-08T05:32:21.142Z,100514.59
2022-11-08T05:33:26.256Z,100523.31
2022-11-08T05:34:30.899Z,100519.78
2022-11-08T05:35:37.948Z,100519.89
2022-11-08T05:36:42.366Z,100519.89
2022-11-08T05:37:46.730Z,100524.24
2022-11-08T05:38:51.288Z,100522.35
2022-11-08T05:39:56.656Z,100524.16
2022-11-08T05:41:11.025Z,100526.70
2022-11-08T05:42:16.856Z,100526.70
2022-11-08T05:43:21.463Z,100524.80
2022-11-08T05:44:25.951Z,100524.80
2022-11-08T05:45:32.705Z,100537.15
2022-11-08T05:46:39.467Z,100527.27
2022-11-08T05:47:46.946Z,100525.66
2022-11-08T05:48:51.255Z,100531.84
2022-11-08T05:49:56.039Z,100525.66
2022-11-08T05:51:02.938Z,100530.23
2022-11-08T05:52:07.243Z,100530.11
2022-11-08T05:53:11.658Z,100525.56
2022-11-08T05:54:16.002Z,100533.33
2022-11-08T05:55:20.387Z,100529.72
2022-11-08T05:56:24.662Z,100526.13
2022-11-08T05:57:28.947Z,100531.24
2022-11-08T05:58:34.741Z,100532.94
2022-11-08T05:59:38.915Z,100527.63
2022-11-08T06:00:43.596Z,100523.92
2022-11-08T06:01:50.202Z,100518.53
2022-11-08T06:02:54.970Z,100523.84
2022-11-08T06:03:59.199Z,100521.27
2022-11-08T06:05:03.265Z,100519.46
2022-11-08T06:06:10.887Z,100530.84
2022-11-08T06:07:15.521Z,100525.33
2022-11-08T06:08:22.371Z,100527.06
2022-11-08T06:09:27.026Z,100533.09
2022-11-08T06:10:31.363Z,100533.86
2022-11-08T06:11:36.235Z,100526.74
2022-11-08T06:12:41.086Z,100533.66
2022-11-08T06:13:46.879Z,100520.22
2022-11-08T06:14:52.878Z,100528.91
2022-11-08T06:16:02.230Z,100528.91
2022-11-08T06:17:06.914Z,100530.72
2022-11-08T06:18:11.038Z,100526.17
2022-11-08T06:19:15.309Z,100542.95
2022-11-08T06:20:20.031Z,100530.52
2022-11-08T06:21:24.125Z,100532.97
2022-11-08T06:22:32.748Z,100521.30
2022-11-08T06:23:37.055Z,100531.72
2022-11-08T06:24:41.438Z,100528.89
2022-11-08T06:25:47.814Z,100526.95
2022-11-08T06:26:51.985Z,100527.72
2022-11-08T06:27:56.124Z,100532.83
2022-11-08T06:29:01.675Z,100533.59
2022-11-08T06:30:06.921Z,100535.48
2022-11-08T06:31:11.786Z,100529.41
2022-11-08T06:32:16.144Z,100527.52
2022-11-08T06:33:22.137Z,100533.67
2022-11-08T06:34:28.781Z,100533.67
2022-11-08T06:35:33.126Z,100531.69
2022-11-08T06:36:37.965Z,100538.91
2022-11-08T06:37:44.426Z,100536.05
2022-11-08T06:38:57.553Z,100537.77
2022-11-08T06:40:03.427Z,100543.80
2022-11-08T06:41:07.701Z,100542.11
2022-11-08T06:42:12.700Z,100539.25
2022-11-08T06:43:19.787Z,100543.72
2022-11-08T06:44:23.369Z,100536.80
2022-11-08T06:45:28.233Z,100537.00
2022-11-08T06:46:32.352Z,100530.94
2022-11-08T06:47:36.574Z,100539.34
2022-11-08T06:48:42.607Z,100534.14
2022-11-08T06:49:46.827Z,100531.92
2022-11-08T06:50:50.976Z,100531.83
2022-11-08T06:51:55.166Z,100531.83
2022-11-08T06:53:07.314Z,100529.52
2022-11-08T06:54:15.530Z,100529.43
2022-11-08T06:55:23.469Z,100527.95
2022-11-08T06:56:28.158Z,100525.84
2022-11-08T06:57:34.438Z,100525.84
2022-11-08T06:58:39.282Z,100518.42
2022-11-08T06:59:44.025Z,100515.43
2022-11-08T07:00:48.455Z,100513.73
2022-11-08T07:01:53.441Z,100518.93
2022-11-08T07:02:59.981Z,100514.58
2022-11-08T07:04:04.814Z,100516.81
2022-11-08T07:05:11.562Z,100517.58
2022-11-08T07:06:16.652Z,100510.56
2022-11-08T07:07:21.054Z,100507.06
2022-11-08T07:08:25.497Z,100510.23
2022-11-08T07:09:29.828Z,100510.23
2022-11-08T07:10:34.422Z,100511.83
2022-11-08T07:11:39.231Z,100521.41
2022-11-08T07:12:43.607Z,100518.87
2022-11-08T07:13:48.019Z,100524.91
2022-11-08T07:14:52.805Z,100516.94
2022-11-08T07:16:00.929Z,100516.94
2022-11-08T07:17:05.136Z,100526.72
2022-11-08T07:18:12.345Z,100523.34
2022-11-08T07:19:17.535Z,100527.78
2022-11-08T07:20:23.677Z,100530.35
2022-11-08T07:21:27.896Z,100524.19
2022-11-08T07:22:32.174Z,100530.44
2022-11-08T07:23:36.749Z,100520.56
2022-11-08T07:24:41.635Z,100523.22
2022-11-08T07:25:46.448Z,100527.78
2022-11-08T07:26:51.545Z,100530.35
2022-11-08T07:27:59.899Z,100531.95
2022-11-08T07:29:05.052Z,100524.19
2022-11-08T07:30:10.365Z,100522.25
2022-11-08T07:31:15.539Z,100525.66
2022-11-08T07:32:20.190Z,100523.98
2022-11-08T07:33:24.686Z,100525.88
2022-11-08T07:34:29.591Z,100541.20
2022-11-08T07:35:33.932Z,100540.14
2022-11-08T07:36:39.098Z,100542.68
2022-11-08T07:37:43.652Z,100542.68
2022-11-08T07:38:48.089Z,100536.52
2022-11-08T07:39:53.090Z,100533.86
2022-11-08T07:41:01.691Z,100536.52
2022-11-08T07:42:06.785Z,100526.09
2022-11-08T07:43:12.839Z,100532.89
2022-11-08T07:44:18.259Z,100529.30
2022-11-08T07:45:23.785Z,100530.35
2022-11-08T07:46:29.379Z,100530.35
2022-11-08T07:47:34.838Z,100532.37
2022-11-08T07:48:39.805Z,100528.97
2022-11-08T07:49:44.935Z,100538.63
2022-11-08T07:50:49.581Z,100534.07
2022-11-08T07:51:54.105Z,100545.47
2022-11-08T07:52:59.039Z,100534.70
2022-11-08T07:54:03.657Z,100544.50
2022-11-08T07:55:09.562Z,100543.44
2022-11-08T07:56:16.054Z,100543.44
2022-11-08T07:57:20.511Z,100547.61
2022-11-08T07:58:25.118Z,100542.37
2022-11-08T07:59:29.570Z,100544.28
2022-11-08T08:00:35.985Z,100540.48
2022-11-08T08:01:40.431Z,100520.77
2022-11-08T08:02:44.867Z,100541.02
2022-11-08T08:03:49.055Z,100541.02
2022-11-08T08:04:53.397Z,100537.39
2022-11-08T08:06:00.986Z,100533.88
2022-11-08T08:07:03.539Z,100534.73
2022-11-08T08:08:08.592Z,100533.76
2022-11-08T08:09:12.977Z,100539.83
2022-11-08T08:10:17.523Z,100539.62
2022-11-08T08:11:21.678Z,100538.56
2022-11-08T08:12:25.861Z,100538.47
2022-11-08T08:13:30.310Z,100540.91
2022-11-08T08:14:34.656Z,100535.59
2022-11-08T08:15:38.920Z,100535.59
2022-11-08T08:16:43.149Z,100532.93
2022-11-08T08:17:47.301Z,100529.30
2022-11-08T08:18:56.102Z,100532.71
2022-11-08T08:19:57.502Z,100529.08
2022-11-08T08:21:01.625Z,100527.39
2022-11-08T08:22:05.837Z,100533.77
2022-11-08T08:23:10.055Z,100536.34
2022-11-08T08:24:14.145Z,100525.58
2022-11-08T08:25:20.109Z,100542.30
2022-11-08T08:26:25.947Z,100534.22
2022-11-08T08:27:32.969Z,100534.22
2022-11-08T08:28:37.735Z,100534.84
2022-11-08T08:29:42.957Z,100522.70
2022-11-08T08:30:47.992Z,100528.24
2022-11-08T08:31:53.234Z,100528.24
2022-11-08T08:33:27.784Z,100530.69
2022-11-08T08:34:21.977Z,100526.11
2022-11-08T08:35:27.310Z,100523.23
2022-11-08T08:36:32.483Z,100534.63
2022-11-08T08:37:37.573Z,100534.63
2022-11-08T08:38:44.778Z,100533.56
2022-11-08T08:39:49.615Z,100534.31
2022-11-08T08:40:54.316Z,100529.71
2022-11-08T08:42:04.081Z,100530.56
2022-11-08T08:43:10.573Z,100524.30
2022-11-08T08:44:15.587Z,100525.89
2022-11-08T08:45:20.882Z,100523.10
2022-11-08T08:46:25.565Z,100525.89
2022-11-08T08:47:31.520Z,100517.77
2022-11-08T08:48:36.551Z,100520.66
2022-11-08T08:49:41.685Z,100513.33
2022-11-08T08:50:46.696Z,100520.44
2022-11-08T08:51:51.786Z,100526.52
2022-11-08T08:53:06.070Z,100528.42
2022-11-08T08:54:10.672Z,100530.99
2022-11-08T08:55:15.475Z,100519.50
2022-11-08T08:56:21.053Z,100525.45
2022-11-08T08:57:25.965Z,100520.02
2022-11-08T08:58:31.050Z,100521.19
2022-11-08T09:01:48.031Z,100518.96
2022-11-08T09:02:53.342Z,100518.96
2022-11-08T09:03:58.092Z,100522.24
2022-11-08T09:05:02.894Z,100519.80
2022-11-08T09:06:07.809Z,100522.47
2022-11-08T09:07:12.042Z,100519.80
2022-11-08T09:08:17.160Z,100525.88
2022-11-08T09:09:23.077Z,100525.88
2022-11-08T09:10:30.274Z,100519.58
2022-11-08T09:11:34.641Z,100515.00
2022-11-08T09:12:39.518Z,100522.02
2022-11-08T09:13:44.131Z,100522.02
2022-11-08T09:14:48.855Z,100519.58
2022-11-08T09:15:53.874Z,100523.22
2022-11-08T09:16:58.956Z,100520.33
2022-11-08T09:18:03.411Z,100520.33
2022-11-08T09:19:08.271Z,100521.80
2022-11-08T09:20:14.550Z,100521.57
2022-11-08T09:21:19.208Z,100528.39
2022-11-08T09:22:23.920Z,100522.09
2022-11-08T09:23:28.786Z,100523.81
2022-11-08T09:24:35.105Z,100524.02
2022-11-08T09:25:39.899Z,100524.02
2022-11-08T09:26:44.528Z,100521.16
2022-11-08T09:27:48.871Z,100528.08
2022-11-08T09:28:54.656Z,100528.08
2022-11-08T09:30:03.079Z,100526.48
2022-11-08T09:31:10.672Z,100519.43
2022-11-08T09:32:24.797Z,100519.43
2022-11-08T09:33:23.848Z,100521.57
2022-11-08T09:34:28.642Z,100516.24
2022-11-08T09:35:33.533Z,100520.73
2022-11-08T09:36:39.149Z,100524.45
2022-11-08T09:37:47.173Z,100522.45
2022-11-08T09:38:52.431Z,100524.23
2022-11-08T09:39:56.978Z,100524.23
2022-11-08T09:41:25.076Z,100519.66
2022-11-08T09:42:32.678Z,100524.76
2022-11-08T09:44:02.343Z,100517.97
2022-11-08T09:45:19.382Z,100515.00
2022-11-08T09:46:41.586Z,100509.67
2022-11-08T09:47:52.868Z,100511.14
2022-11-08T09:48:57.823Z,100512.86
2022-11-08T09:50:17.023Z,100512.64
2022-11-08T09:51:23.873Z,100506.34
2022-11-08T09:52:31.175Z,100518.48
2022-11-08T09:53:47.322Z,100515.08
2022-11-08T09:54:54.504Z,100513.26
2022-11-08T09:56:01.647Z,100513.26
2022-11-08T09:57:08.998Z,100513.16
2022-11-08T09:58:22.142Z,100513.16
2022-11-08T09:59:32.305Z,100512.64
2022-11-08T10:00:40.937Z,100513.36
2022-11-08T10:01:45.160Z,100514.01
2022-11-08T10:02:50.135Z,100512.19
2022-11-08T10:03:57.168Z,100513.03
2022-11-08T10:05:07.465Z,100516.31
2022-11-08T10:06:38.739Z,100516.22
2022-11-08T10:08:03.832Z,100515.25
2022-11-08T10:09:36.903Z,100510.98
2022-11-08T10:11:08.027Z,100516.54
2022-11-08T10:12:32.236Z,100513.88
2022-11-08T10:13:57.428Z,100513.88
2022-11-08T10:15:07.511Z,100513.88
2022-11-08T10:16:36.017Z,100515.60
2022-11-08T10:17:58.243Z,100518.98
2022-11-08T10:19:31.339Z,100497.83
2022-11-08T10:20:56.843Z,100517.91
2022-11-08T10:22:07.225Z,100501.31
2022-11-08T10:23:22.959Z,100513.03
2022-11-08T10:24:52.740Z,100509.43
2022-11-08T10:26:02.643Z,100511.96
2022-11-08T10:27:12.302Z,100511.96
2022-11-08T10:28:22.773Z,100504.59
2022-11-08T10:29:30.205Z,100504.59
2022-11-08T10:30:44.307Z,100510.11
2022-11-08T10:31:51.208Z,100502.73
2022-11-08T10:32:57.980Z,100503.38
2022-11-08T10:34:06.467Z,100505.07
2022-11-08T10:35:13.742Z,100502.64
2022-11-08T10:36:29.712Z,100500.95
2022-11-08T10:37:34.353Z,100502.73
2022-11-08T10:38:47.346Z,100508.20
2022-11-08T10:39:57.859Z,100513.39
2022-11-08T10:41:13.139Z,100517.88
2022-11-08T10:42:23.599Z,100511.61
2022-11-08T10:43:37.831Z,100500.07
2022-11-08T10:44:42.888Z,100500.07
2022-11-08T10:45:47.596Z,100503.61
2022-11-08T10:47:01.120Z,100511.70
2022-11-08T10:48:06.566Z,100511.70
2022-11-08T10:49:16.797Z,100507.13
2022-11-08T10:50:24.331Z,100505.40
2022-11-08T10:51:29.016Z,100506.15
2022-11-08T10:52:39.462Z,100506.15
2022-11-08T10:53:47.393Z,100507.84
2022-11-08T10:54:54.091Z,100507.84
2022-11-08T10:56:04.217Z,100487.34
2022-11-08T10:57:11.334Z,100487.34
2022-11-08T10:58:34.513Z,100500.26
2022-11-08T10:59:39.367Z,100504.52
2022-11-08T11:00:44.271Z,100508.77
2022-11-08T11:01:53.395Z,100505.03
2022-11-08T11:03:03.964Z,100505.03
2022-11-08T11:04:11.393Z,100510.88
2022-11-08T11:05:21.921Z,100504.56
2022-11-08T11:06:31.430Z,100510.55
2022-11-08T11:07:37.964Z,100507.55
2022-11-08T11:08:51.729Z,100508.39
2022-11-08T11:09:56.746Z,100507.21
2022-11-08T11:11:17.724Z,100507.95
2022-11-08T11:12:23.586Z,100511.23
2022-11-08T11:13:29.641Z,100505.77
2022-11-08T11:14:34.218Z,100516.23
2022-11-08T11:15:53.424Z,100514.27
2022-11-08T11:17:00.763Z,100509.69
2022-11-08T11:18:07.614Z,100509.69
2022-11-08T11:19:15.789Z,100522.78
2022-11-08T11:20:23.421Z,100522.78
2022-11-08T11:21:40.885Z,100524.27
2022-11-08T11:22:46.843Z,100521.37
2022-11-08T11:23:55.279Z,100521.37
2022-11-08T11:25:06.202Z,100510.46
2022-11-08T11:26:33.295Z,100504.15
2022-11-08T11:27:39.886Z,100511.20
2022-11-08T11:29:06.435Z,100511.20
2022-11-08T11:30:38.530Z,100507.56
2022-11-08T11:31:47.260Z,100506.47
2022-11-08T11:33:06.914Z,100506.47
2022-11-08T11:34:20.446Z,100497.05
2022-11-08T11:35:27.960Z,100497.05
2022-11-08T11:36:34.488Z,100501.06
2022-11-08T11:37:47.368Z,100499.84
2022-11-08T11:39:00.274Z,100503.25
2022-11-08T11:40:26.020Z,100503.25
2022-11-08T11:41:36.175Z,100500.98
2022-11-08T11:42:51.428Z,100500.98
2022-11-08T11:44:15.844Z,100504.59
2022-11-08T11:45:47.347Z,100509.59
2022-11-08T11:47:00.838Z,100507.52
2022-11-08T11:49:36.933Z,100506.19
2022-11-08T11:50:43.572Z,100507.67
2022-11-08T11:51:48.107Z,100507.67
2022-11-08T11:52:52.490Z,100516.28
2022-11-08T11:53:58.322Z,100514.45
2022-11-08T11:55:03.160Z,100518.84
2022-11-08T11:56:26.937Z,100517.75
2022-11-08T11:57:37.077Z,100518.59
2022-11-08T11:59:02.223Z,100511.44
2022-11-08T12:00:12.236Z,100521.02
2022-11-08T12:01:30.627Z,100528.05
2022-11-08T12:02:55.204Z,100528.05
2022-11-08T12:04:19.006Z,100525.88
2022-11-08T12:05:56.582Z,100525.88
2022-11-08T12:07:15.806Z,100517.52
2022-11-08T12:08:28.651Z,100524.69
2022-11-08T12:09:41.870Z,100522.02
2022-11-08T12:11:07.062Z,100524.55
2022-11-08T12:12:33.342Z,100525.17
2022-11-08T12:13:40.546Z,100530.38
2022-11-08T12:14:47.708Z,100531.95
2022-11-08T12:16:03.458Z,100531.01
2022-11-08T12:17:19.598Z,100531.01
2022-11-08T12:18:42.745Z,100538.53
2022-11-08T12:19:44.033Z,100538.53
2022-11-08T12:20:57.043Z,100545.31
2022-11-08T12:22:13.092Z,100536.45
2022-11-08T12:23:32.334Z,100542.53
2022-11-08T12:25:11.657Z,100539.75
2022-11-08T12:26:40.979Z,100544.95
2022-11-08T12:27:57.550Z,100544.95
2022-11-08T12:29:06.236Z,100536.84
2022-11-08T12:30:23.060Z,100543.97
2022-11-08T12:31:36.672Z,100539.51
2022-11-08T12:32:46.959Z,100550.19
2022-11-08T12:34:06.586Z,100544.22
2022-11-08T12:35:29.431Z,100545.09
2022-11-08T12:36:55.673Z,100540.70
2022-11-08T12:38:06.369Z,100551.39
2022-11-08T12:39:25.770Z,100547.98
2022-11-08T12:40:45.926Z,100548.97
2022-11-08T12:41:58.316Z,100548.97
2022-11-08T12:43:20.868Z,100545.45
2022-11-08T12:44:28.608Z,100552.62
2022-11-08T12:45:41.450Z,100552.48
2022-11-08T12:47:07.184Z,100548.97
2022-11-08T12:48:23.497Z,100549.95
2022-11-08T12:49:39.763Z,100555.16
2022-11-08T12:51:05.267Z,100555.16
2022-11-08T12:52:42.865Z,100549.95
2022-11-08T12:53:56.293Z,100553.81
2022-11-08T12:55:04.064Z,100552.13
2022-11-08T12:56:11.610Z,100540.70
2022-11-08T12:57:18.515Z,100540.70
2022-11-08T12:58:46.482Z,100546.89
2022-11-08T12:59:53.726Z,100546.89